Terminal Aerodrome Forecast
Issued by NWS

Home | Current Version | Previous Version | Text Only | Print | Product List | Glossary On
Versions: 1 2 3 4 5 6 7 8 9 10 11 12 13 14 15 16
539
FTUS43 KMPX 141402 AAA
TAFAXN
TAF AMD
KAXN 141402Z 1414/1512 14014KT 2SM -SN OVC018
      TEMPO 1414/1416 1/2SM SN VV008
     FM141600 16014KT 3SM -SN OVC008
     FM142200 16010KT P6SM OVC012
     FM150700 24005KT P6SM OVC008=

USA.gov is the U.S. government's official web portal to all federal, state and local government web resources and services.